createdAt,value
2023-03-17T06:32:19.273Z,69.77
2023-03-17T06:35:54.842Z,70.42
2023-03-17T06:36:54.703Z,68.16
2023-03-17T06:37:54.608Z,67.03
2023-03-17T06:38:56.839Z,66.55
2023-03-17T06:39:54.477Z,68.16
2023-03-17T06:40:55.519Z,72.35
2023-03-17T06:41:54.531Z,69.77
2023-03-17T06:42:54.463Z,65.90
2023-03-17T06:43:55.404Z,68.80
2023-03-17T06:44:54.429Z,67.68
2023-03-17T06:45:54.311Z,66.87
2023-03-17T06:46:54.404Z,67.03
2023-03-17T06:47:54.345Z,67.35
2023-03-17T06:48:54.363Z,80.57
2023-03-17T06:49:54.445Z,68.32
2023-03-17T06:50:54.424Z,68.16
2023-03-17T06:51:54.428Z,67.51
2023-03-17T06:52:55.389Z,67.19
2023-03-17T06:53:54.436Z,72.83
2023-03-17T06:54:54.529Z,70.58
2023-03-17T06:55:54.362Z,69.93
2023-03-17T06:56:56.289Z,72.19
2023-03-17T06:57:55.357Z,72.99
2023-03-17T06:58:54.438Z,70.58
2023-03-17T06:59:54.330Z,71.54
2023-03-17T07:00:54.370Z,68.48
2023-03-17T07:02:54.213Z,63.81
2023-03-17T07:06:44.032Z,70.42
2023-03-17T07:07:43.989Z,74.93
2023-03-17T07:08:44.125Z,74.44
2023-03-17T07:09:43.855Z,70.90
2023-03-17T07:10:43.920Z,71.38
2023-03-17T07:14:34.312Z,67.84
2023-03-17T07:15:34.017Z,65.74
2023-03-17T07:16:33.968Z,66.71
2023-03-17T07:17:33.883Z,65.90
2023-03-17T07:18:33.929Z,66.55
2023-03-17T07:19:34.869Z,65.74
2023-03-17T07:20:33.826Z,65.74
2023-03-17T07:22:11.154Z,65.58
2023-03-17T07:22:33.845Z,67.84
2023-03-17T07:23:33.757Z,65.58
2023-03-17T07:24:34.781Z,66.23
2023-03-17T07:25:34.047Z,65.58
2023-03-17T07:26:33.950Z,67.03
2023-03-17T07:27:34.807Z,65.58
2023-03-17T07:28:34.003Z,65.90
2023-03-17T07:29:38.932Z,62.20
2023-03-17T07:30:33.918Z,60.26
2023-03-17T07:31:33.910Z,62.20
2023-03-17T07:32:34.409Z,62.20
2023-03-17T07:33:33.858Z,62.84
2023-03-17T07:34:33.825Z,62.20
2023-03-17T07:35:34.252Z,61.55
2023-03-17T07:36:33.804Z,62.68
2023-03-17T07:37:33.826Z,61.23
2023-03-17T07:38:34.002Z,61.55
2023-03-17T07:39:34.698Z,62.04
2023-03-17T07:40:35.315Z,71.06
2023-03-17T07:41:34.790Z,67.35
2023-03-17T07:42:33.802Z,68.80
2023-03-17T07:43:33.711Z,61.55
2023-03-17T07:44:33.959Z,62.36
2023-03-17T07:45:34.154Z,63.49
2023-03-17T07:46:33.778Z,61.55
2023-03-17T07:47:33.830Z,63.33
2023-03-17T07:48:33.760Z,75.41
2023-03-17T07:49:41.383Z,64.61
2023-03-17T07:50:35.630Z,61.71
2023-03-17T07:51:34.730Z,60.75
2023-03-17T07:52:33.705Z,65.42
2023-03-17T07:53:33.832Z,61.71
2023-03-17T07:54:33.711Z,63.65
2023-03-17T07:55:33.764Z,65.90
2023-03-17T07:56:52.441Z,62.20
2023-03-17T07:57:33.660Z,64.29
2023-03-17T07:58:33.663Z,64.45
2023-03-17T07:59:33.771Z,64.29
2023-03-17T08:00:34.034Z,65.26
2023-03-17T08:01:33.607Z,64.94
2023-03-17T08:02:34.658Z,65.74
2023-03-17T08:03:33.784Z,67.68
2023-03-17T08:04:33.666Z,66.55
2023-03-17T08:05:33.601Z,68.80
2023-03-17T08:06:33.611Z,71.54
2023-03-17T08:07:33.583Z,71.38
2023-03-17T08:08:34.216Z,67.51
2023-03-17T08:10:14.168Z,65.90
2023-03-17T08:10:33.933Z,62.04
2023-03-17T08:11:33.525Z,69.93
2023-03-17T08:12:33.505Z,68.80
2023-03-17T08:16:54.433Z,67.51
2023-03-17T08:18:54.109Z,63.16
2023-03-17T08:19:54.185Z,62.36
2023-03-17T08:20:54.201Z,65.90
2023-03-17T08:21:54.043Z,65.58
2023-03-17T08:28:39.186Z,65.26
2023-03-17T08:29:38.615Z,71.70
2023-03-17T08:30:38.717Z,74.12
2023-03-17T08:31:39.104Z,66.06
2023-03-17T08:32:38.720Z,64.94
2023-03-17T08:33:38.358Z,64.29
2023-03-17T08:39:06.256Z,65.74
2023-03-17T08:40:06.327Z,60.91
2023-03-17T08:43:59.998Z,62.84
2023-03-17T08:47:48.028Z,68.16
2023-03-17T08:48:48.106Z,65.26
2023-03-17T08:49:48.071Z,64.29
2023-03-17T08:50:48.060Z,65.26
2023-03-17T08:51:47.927Z,62.52
2023-03-17T08:55:43.161Z,64.29
2023-03-17T08:56:43.231Z,62.20
2023-03-17T08:57:43.179Z,67.03
2023-03-17T08:58:43.203Z,65.90
2023-03-17T09:02:40.541Z,63.65
2023-03-17T09:03:39.957Z,68.00
2023-03-17T09:04:40.439Z,64.78
2023-03-17T09:05:39.950Z,66.55
2023-03-17T09:06:46.362Z,63.97
2023-03-17T09:07:41.885Z,61.55
2023-03-17T09:08:39.685Z,58.33
2023-03-17T09:09:39.775Z,59.78
2023-03-17T09:10:39.778Z,60.59
2023-03-17T09:11:39.737Z,62.20
2023-03-17T09:12:40.515Z,66.39
2023-03-17T09:13:40.451Z,61.39
2023-03-17T09:17:28.114Z,60.42
2023-03-17T09:18:28.078Z,61.71
2023-03-17T09:22:40.148Z,59.30
2023-03-17T09:31:09.604Z,71.06
2023-03-17T09:32:09.537Z,66.23
2023-03-17T09:33:09.361Z,64.13
2023-03-17T09:34:09.281Z,63.00
2023-03-17T09:35:29.508Z,66.87
2023-03-17T09:36:09.251Z,67.51
2023-03-17T09:37:09.220Z,64.45
2023-03-17T09:38:09.227Z,61.23
2023-03-17T09:39:09.892Z,64.29
2023-03-17T09:43:29.734Z,64.94
2023-03-17T09:59:13.224Z,61.07
2023-03-17T10:00:13.141Z,61.23
2023-03-17T14:11:48.683Z,92.65
2023-03-17T14:15:47.333Z,89.91
2023-03-17T14:16:47.663Z,96.04
2023-03-17T14:17:49.293Z,81.37
2023-03-17T14:18:47.290Z,97.65
2023-03-17T14:19:47.444Z,96.20
2023-03-17T14:21:26.961Z,76.38
2023-03-17T14:21:47.286Z,94.10
2023-03-17T14:26:36.809Z,73.48
2023-03-17T14:27:36.749Z,72.51
2023-03-17T14:49:23.420Z,64.13
2023-03-17T14:50:23.360Z,102.16
2023-03-17T14:51:43.063Z,102.96
2023-03-17T14:52:23.252Z,85.08
2023-03-17T14:53:23.242Z,104.09
2023-03-17T14:54:23.249Z,76.70
2023-03-17T14:55:58.452Z,70.90
2023-03-17T14:56:23.216Z,65.74
2023-03-17T14:57:23.295Z,62.84
